Alice, Texas
Current Conditions -  °F | °C
As of 6:53 AM on Friday 24 Oct 2014 (Local Time) from KALI Reporting Station
Clear Clear  
Wind Chill: 62°   Ceiling: Unl
Heat Index: 62°   Visibility: 8mi
Dew Point: 60°   Wind: 5mph
Humidity: 93%   Direction: 330°NNW
Pressure: 30.1"   Gusts: NA
Location:  27.75°N, 98.06°W
Report Text: KALI 241153Z AUTO 33004KT 8SM CLR 17/16 A3010 RMK AO2 SLP192 T01670156 10194 20167 53004
Loading
Personal Weather Stations






























Interactive Weather Map New forecast layout! Learn more

10-Day Weather Forecast

Advertisements
Track Severe Weather on mobile